Time;durP1;ratioP1;P1;durP2;ratioP2;P2;SDS_P1;SDS_P2;PMS_P1;PMS_P2;Temp;Humidity;BMP_temperature;BMP_pressure;BME280_temperature;BME280_humidity;BME280_pressure;Samples;Min_cycle;Max_cycle;Signal;HPM_P1;HPM_P2
2023/12/31 00:00:58;;;;;;;6.03;3.75;;;8.40;99.90;;;;;;5082190;28;20144;-75
2023/12/31 00:03:23;;;;;;;6.25;3.53;;;8.50;99.90;;;;;;5078253;28;20056;-75
2023/12/31 00:05:52;;;;;;;5.90;3.10;;;8.40;99.90;;;;;;5080297;27;20055;-75
2023/12/31 00:08:18;;;;;;;5.47;2.80;;;8.50;99.90;;;;;;5078492;27;20051;-75
2023/12/31 00:10:44;;;;;;;5.13;3.20;;;8.40;99.90;;;;;;5060181;28;20562;-75
2023/12/31 00:13:10;;;;;;;6.30;3.20;;;8.40;99.90;;;;;;5076104;28;20047;-75
2023/12/31 00:15:35;;;;;;;8.10;3.90;;;8.30;99.90;;;;;;5077260;28;20132;-75
2023/12/31 00:18:01;;;;;;;5.68;3.80;;;8.40;99.90;;;;;;5075194;28;20047;-75
2023/12/31 00:20:27;;;;;;;5.88;3.30;;;8.40;99.90;;;;;;5072886;28;20036;-75
2023/12/31 00:22:53;;;;;;;4.35;2.83;;;8.40;99.90;;;;;;5056149;28;20040;-75
2023/12/31 00:25:19;;;;;;;4.50;3.05;;;8.40;99.90;;;;;;5072474;28;20039;-75
2023/12/31 00:27:44;;;;;;;5.53;3.42;;;8.30;99.90;;;;;;5078957;28;20410;-75
2023/12/31 00:30:11;;;;;;;5.60;3.40;;;8.30;99.90;;;;;;5074670;28;20046;-76
2023/12/31 00:32:41;;;;;;;5.88;3.40;;;8.30;99.90;;;;;;5085034;27;20048;-75
2023/12/31 00:35:07;;;;;;;5.25;3.53;;;8.30;99.90;;;;;;5083937;28;20040;-75
2023/12/31 00:37:32;;;;;;;6.90;3.97;;;8.30;99.90;;;;;;5074084;28;20039;-75
2023/12/31 00:39:58;;;;;;;5.15;3.78;;;8.30;99.90;;;;;;5074972;28;20101;-74
2023/12/31 00:42:24;;;;;;;6.97;3.78;;;8.20;99.90;;;;;;5060749;28;20109;-74
2023/12/31 00:44:50;;;;;;;6.22;3.78;;;8.20;99.90;;;;;;5058245;27;20087;-76
2023/12/31 00:47:15;;;;;;;4.90;3.15;;;8.30;99.90;;;;;;5073629;28;20082;-74
2023/12/31 00:49:41;;;;;;;7.50;4.20;;;8.20;99.90;;;;;;5074889;28;20120;-74
2023/12/31 00:52:07;;;;;;;5.13;3.28;;;8.20;99.90;;;;;;5058592;28;20055;-74
2023/12/31 00:54:32;;;;;;;5.00;3.28;;;8.20;99.90;;;;;;5056910;28;20109;-74
2023/12/31 00:56:59;;;;;;;4.97;3.30;;;8.20;99.90;;;;;;5073755;28;20052;-75
2023/12/31 00:59:24;;;;;;;4.35;3.20;;;8.20;99.90;;;;;;5059325;28;20035;-76
2023/12/31 01:01:51;;;;;;;5.20;2.95;;;8.30;99.90;;;;;;5078324;28;20550;-75
2023/12/31 01:04:16;;;;;;;5.15;3.25;;;8.30;99.90;;;;;;5072358;27;20058;-75
2023/12/31 01:06:42;;;;;;;5.63;3.58;;;8.30;99.90;;;;;;5077538;27;20052;-75
2023/12/31 01:09:10;;;;;;;5.78;3.33;;;8.30;99.90;;;;;;5061433;28;20036;-75
2023/12/31 01:11:36;;;;;;;5.22;3.40;;;8.20;99.90;;;;;;5073216;27;20510;-75
2023/12/31 01:14:02;;;;;;;4.82;3.33;;;8.20;99.90;;;;;;5050882;27;20120;-75
2023/12/31 01:16:28;;;;;;;4.10;3.15;;;8.20;99.90;;;;;;5081133;28;20047;-75
2023/12/31 01:18:54;;;;;;;5.07;3.30;;;8.20;99.90;;;;;;5058401;28;20035;-75
2023/12/31 01:21:20;;;;;;;5.38;3.20;;;8.20;99.90;;;;;;5074269;28;20044;-76
2023/12/31 01:23:46;;;;;;;5.03;3.42;;;8.20;99.90;;;;;;5070151;28;20051;-77
2023/12/31 01:26:12;;;;;;;5.20;3.67;;;8.20;99.90;;;;;;5072034;28;20044;-77
2023/12/31 01:28:37;;;;;;;5.22;3.20;;;8.20;99.90;;;;;;5055512;28;20047;-75
2023/12/31 01:31:03;;;;;;;4.13;2.83;;;8.20;99.90;;;;;;5070563;27;20512;-75
2023/12/31 01:33:29;;;;;;;4.95;3.30;;;8.10;99.90;;;;;;5051678;28;20381;-75
2023/12/31 01:35:55;;;;;;;4.45;2.92;;;8.20;99.90;;;;;;5069369;27;20075;-75
2023/12/31 01:38:24;;;;;;;4.88;3.10;;;8.10;99.90;;;;;;5060091;28;20656;-75
2023/12/31 01:40:53;;;;;;;4.05;2.85;;;8.10;99.90;;;;;;5058841;28;20126;-75
2023/12/31 01:43:23;;;;;;;4.05;2.80;;;8.10;99.90;;;;;;5060731;28;20490;-75
2023/12/31 01:45:49;;;;;;;4.70;3.25;;;8.10;99.90;;;;;;5066373;27;20402;-74
2023/12/31 01:48:15;;;;;;;4.25;2.78;;;8.10;99.90;;;;;;5079137;28;20048;-75
2023/12/31 01:50:42;;;;;;;3.80;2.40;;;8.10;99.90;;;;;;5080515;28;20151;-74
2023/12/31 01:53:09;;;;;;;4.60;3.28;;;8.10;99.90;;;;;;5087346;27;20535;-74
2023/12/31 01:55:34;;;;;;;4.63;2.95;;;8.10;99.90;;;;;;5085430;28;20115;-74
2023/12/31 01:58:01;;;;;;;4.10;2.67;;;8.10;99.90;;;;;;5082650;28;20485;-75
2023/12/31 02:00:27;;;;;;;3.85;2.65;;;8.10;99.90;;;;;;5081640;28;20923;-75
2023/12/31 02:02:55;;;;;;;4.00;2.50;;;8.10;99.90;;;;;;5070645;27;20054;-76
2023/12/31 02:05:24;;;;;;;4.03;2.58;;;8.10;99.90;;;;;;5065966;28;20048;-75
2023/12/31 02:07:50;;;;;;;5.15;3.25;;;8.10;99.90;;;;;;5070918;27;20046;-75
2023/12/31 02:10:16;;;;;;;5.82;2.95;;;8.10;99.90;;;;;;5078595;28;20131;-75
2023/12/31 02:12:42;;;;;;;5.53;2.60;;;8.10;99.90;;;;;;5084878;28;20045;-75
2023/12/31 02:15:08;;;;;;;4.57;2.97;;;8.10;99.90;;;;;;5081663;28;20398;-75
2023/12/31 02:17:35;;;;;;;4.65;3.20;;;8.20;99.90;;;;;;5078611;28;20557;-75
2023/12/31 02:20:01;;;;;;;6.53;3.25;;;8.10;99.90;;;;;;5082874;27;20553;-75
2023/12/31 02:22:28;;;;;;;4.72;2.83;;;8.10;99.90;;;;;;5064027;28;20040;-75
2023/12/31 02:24:58;;;;;;;4.35;3.10;;;8.10;99.90;;;;;;5081012;28;20054;-75
2023/12/31 02:27:24;;;;;;;4.82;2.97;;;8.10;99.90;;;;;;5063664;28;20044;-75
2023/12/31 02:29:50;;;;;;;3.88;2.60;;;8.20;99.90;;;;;;5088389;28;20040;-75
2023/12/31 02:32:15;;;;;;;3.95;2.67;;;8.20;99.90;;;;;;5067974;28;20273;-75
2023/12/31 02:34:45;;;;;;;4.75;2.53;;;8.20;99.90;;;;;;5087718;27;20039;-76
2023/12/31 02:37:10;;;;;;;3.93;2.80;;;8.30;99.90;;;;;;5086120;28;20555;-75
2023/12/31 02:39:36;;;;;;;3.92;2.50;;;8.30;99.90;;;;;;5096898;27;20421;-75
2023/12/31 02:42:02;;;;;;;4.07;2.58;;;8.30;99.90;;;;;;5065968;28;20147;-75
2023/12/31 02:44:28;;;;;;;6.38;2.58;;;8.30;99.90;;;;;;5085684;27;20497;-76
2023/12/31 02:46:54;;;;;;;4.75;2.65;;;8.30;99.90;;;;;;5083094;27;20050;-75
2023/12/31 02:49:20;;;;;;;5.20;2.80;;;8.30;99.90;;;;;;5061717;28;20043;-76
2023/12/31 02:51:45;;;;;;;4.90;2.45;;;8.20;99.90;;;;;;5083034;27;20046;-76
2023/12/31 02:54:11;;;;;;;5.53;2.65;;;8.30;99.90;;;;;;5086948;28;20047;-76
2023/12/31 02:56:41;;;;;;;8.52;2.70;;;8.20;99.90;;;;;;5066830;27;20045;-76
2023/12/31 02:59:07;;;;;;;3.80;2.28;;;8.30;99.90;;;;;;5081464;28;20615;-75
2023/12/31 03:01:33;;;;;;;4.32;2.70;;;8.30;99.90;;;;;;5065980;28;20157;-76
2023/12/31 03:03:59;;;;;;;4.28;2.58;;;8.30;99.90;;;;;;5080086;28;20130;-76
2023/12/31 03:06:30;;;;;;;4.72;2.70;;;8.30;99.90;;;;;;5060813;28;20105;-76
2023/12/31 03:09:01;;;;;;;5.45;2.47;;;8.30;99.90;;;;;;5080140;28;20127;-76
2023/12/31 03:11:27;;;;;;;3.78;2.08;;;8.30;99.90;;;;;;5076974;28;20505;-75
2023/12/31 03:13:53;;;;;;;4.43;2.13;;;8.30;99.90;;;;;;5065384;28;20044;-75
2023/12/31 03:16:19;;;;;;;4.30;2.20;;;8.30;99.90;;;;;;5069515;28;20040;-74
2023/12/31 03:18:48;;;;;;;4.70;2.03;;;8.40;99.90;;;;;;5074017;28;20074;-75
2023/12/31 03:21:17;;;;;;;4.57;2.28;;;8.30;99.90;;;;;;5070942;28;20123;-75
2023/12/31 03:23:42;;;;;;;4.07;2.17;;;8.30;99.90;;;;;;5077130;28;20521;-75
2023/12/31 03:26:08;;;;;;;4.88;2.53;;;8.40;99.90;;;;;;5052196;28;20047;-75
2023/12/31 03:28:35;;;;;;;4.65;2.10;;;8.40;99.90;;;;;;5070373;28;20547;-75
2023/12/31 03:31:00;;;;;;;3.97;1.95;;;8.30;99.90;;;;;;5066346;28;20044;-75
2023/12/31 03:33:26;;;;;;;3.78;2.10;;;8.30;99.90;;;;;;5077636;28;20714;-75
2023/12/31 03:35:52;;;;;;;3.55;2.15;;;8.30;99.90;;;;;;5084240;28;20051;-75
2023/12/31 03:38:18;;;;;;;4.28;2.67;;;8.30;99.90;;;;;;5079493;28;20040;-75
2023/12/31 03:40:44;;;;;;;4.15;2.08;;;8.40;99.90;;;;;;5068118;28;20101;-75
2023/12/31 03:43:10;;;;;;;3.40;2.00;;;8.40;99.90;;;;;;5077461;28;20566;-75
2023/12/31 03:45:35;;;;;;;3.28;2.10;;;8.40;99.90;;;;;;5072824;28;20359;-75
2023/12/31 03:48:01;;;;;;;3.13;1.90;;;8.40;99.90;;;;;;5084601;28;20063;-75
2023/12/31 03:50:27;;;;;;;4.93;2.03;;;8.40;99.90;;;;;;5079224;28;20075;-75
2023/12/31 03:52:56;;;;;;;3.80;2.20;;;8.40;99.90;;;;;;5061656;28;20047;-75
2023/12/31 03:55:22;;;;;;;3.25;2.10;;;8.40;99.90;;;;;;5050084;28;20032;-75
2023/12/31 03:57:48;;;;;;;3.53;2.22;;;8.40;99.90;;;;;;5053533;28;20241;-76
2023/12/31 04:00:14;;;;;;;4.55;1.95;;;8.40;99.90;;;;;;5070197;28;20379;-76
2023/12/31 04:02:40;;;;;;;3.17;2.20;;;8.40;99.90;;;;;;5065899;28;20116;-76
2023/12/31 04:05:06;;;;;;;3.42;2.50;;;8.30;99.90;;;;;;5069738;28;20139;-76
2023/12/31 04:07:32;;;;;;;5.18;2.35;;;8.30;99.90;;;;;;5065729;28;20417;-75
2023/12/31 04:10:01;;;;;;;4.40;2.20;;;8.30;99.90;;;;;;5073030;28;20189;-76
2023/12/31 04:12:26;;;;;;;4.38;2.33;;;8.30;99.90;;;;;;5071377;28;20036;-75
2023/12/31 04:14:52;;;;;;;4.88;2.33;;;8.30;99.90;;;;;;5073352;28;20063;-75
2023/12/31 04:17:21;;;;;;;3.97;2.50;;;8.30;99.90;;;;;;5051895;28;20502;-75
2023/12/31 04:19:47;;;;;;;3.60;2.22;;;8.30;99.90;;;;;;5081746;28;20043;-74
2023/12/31 04:22:13;;;;;;;5.32;2.60;;;8.30;99.90;;;;;;5072671;28;20506;-75
2023/12/31 04:24:39;;;;;;;4.70;2.80;;;8.30;99.90;;;;;;5070245;28;20036;-74
2023/12/31 04:27:05;;;;;;;4.95;2.40;;;8.30;99.90;;;;;;5085122;28;20055;-74
2023/12/31 04:29:31;;;;;;;4.60;2.65;;;8.30;99.90;;;;;;5067585;28;20035;-74
2023/12/31 04:31:56;;;;;;;4.80;2.60;;;8.20;99.90;;;;;;5065889;28;20052;-74
2023/12/31 04:34:22;;;;;;;6.85;2.63;;;8.20;99.90;;;;;;5082603;28;20109;-74
2023/12/31 04:36:48;;;;;;;5.20;2.70;;;8.20;99.90;;;;;;5062268;28;20469;-74
2023/12/31 04:39:13;;;;;;;4.45;2.75;;;8.20;99.90;;;;;;5069678;28;20145;-74
2023/12/31 04:41:39;;;;;;;3.92;2.60;;;8.20;99.90;;;;;;5072305;28;20789;-74
2023/12/31 04:44:05;;;;;;;4.05;2.67;;;8.20;99.90;;;;;;5069344;28;20420;-74
2023/12/31 04:46:31;;;;;;;6.18;3.03;;;8.20;99.90;;;;;;5073538;28;20241;-74
2023/12/31 04:48:56;;;;;;;5.25;3.08;;;8.20;99.90;;;;;;5072660;28;20040;-76
2023/12/31 04:51:24;;;;;;;3.80;2.50;;;8.20;99.90;;;;;;5055443;28;20044;-74
2023/12/31 04:53:50;;;;;;;4.05;2.40;;;8.10;99.90;;;;;;5083932;28;20510;-74
2023/12/31 04:56:23;;;;;;;4.60;2.90;;;8.10;99.90;;;;;;5073290;28;20423;-74
2023/12/31 04:58:51;;;;;;;6.80;3.08;;;8.10;99.90;;;;;;5056128;28;20082;-74
2023/12/31 05:01:17;;;;;;;5.55;2.85;;;8.10;99.90;;;;;;5057039;28;20040;-75
2023/12/31 05:03:45;;;;;;;4.78;3.13;;;8.10;99.90;;;;;;5068201;28;20048;-74
2023/12/31 05:06:12;;;;;;;4.63;3.05;;;8.10;99.90;;;;;;5085171;28;20044;-75
2023/12/31 05:08:42;;;;;;;4.55;2.88;;;8.10;99.90;;;;;;5082251;28;20048;-75
2023/12/31 05:11:11;;;;;;;;;;;8.10;99.90;;;;;;5066606;28;20047;-74
2023/12/31 05:13:39;;;;;;;3.95;2.70;;;8.10;99.90;;;;;;5064554;28;20396;-74
2023/12/31 05:16:06;;;;;;;6.03;3.45;;;8.10;99.90;;;;;;5082085;28;20372;-74
2023/12/31 05:18:32;;;;;;;5.10;2.85;;;8.10;99.90;;;;;;5071066;28;20114;-75
2023/12/31 05:20:59;;;;;;;4.25;3.28;;;8.10;99.90;;;;;;5070897;28;20502;-74
2023/12/31 05:23:27;;;;;;;5.57;3.63;;;8.10;99.90;;;;;;5053802;28;20044;-74
2023/12/31 05:25:53;;;;;;;4.93;2.92;;;8.10;99.90;;;;;;5054503;28;20076;-74
2023/12/31 05:28:19;;;;;;;4.55;2.80;;;8.10;99.90;;;;;;5074318;28;20090;-75
2023/12/31 05:30:45;;;;;;;4.75;2.83;;;8.10;99.90;;;;;;5063894;28;20051;-74
2023/12/31 05:33:11;;;;;;;4.40;2.83;;;8.10;99.90;;;;;;5069962;28;20051;-74
2023/12/31 05:35:36;;;;;;;5.13;2.90;;;8.10;99.90;;;;;;5055189;28;20056;-74
2023/12/31 05:38:02;;;;;;;5.22;3.00;;;8.10;99.90;;;;;;5072307;28;20048;-74
2023/12/31 05:40:28;;;;;;;5.30;3.13;;;8.10;99.90;;;;;;5069080;28;20073;-74
2023/12/31 05:42:54;;;;;;;3.90;2.70;;;8.10;99.90;;;;;;5060385;28;20511;-73
2023/12/31 05:45:20;;;;;;;5.13;2.80;;;8.10;99.90;;;;;;5070469;28;20463;-74
2023/12/31 05:47:49;;;;;;;6.47;2.90;;;8.10;99.90;;;;;;5071824;28;20051;-74
2023/12/31 05:50:15;;;;;;;5.47;3.13;;;8.10;99.90;;;;;;5064531;28;20514;-74
2023/12/31 05:52:41;;;;;;;5.32;3.20;;;8.10;99.90;;;;;;5085181;28;20032;-74
2023/12/31 05:55:07;;;;;;;5.97;2.80;;;8.00;99.90;;;;;;5080336;28;20043;-74
2023/12/31 05:57:33;;;;;;;4.70;3.35;;;8.00;99.90;;;;;;5078575;28;20572;-74
2023/12/31 06:00:05;;;;;;;4.15;3.03;;;8.10;99.90;;;;;;5073470;28;20043;-74
2023/12/31 06:02:32;;;;;;;4.95;3.10;;;8.10;99.90;;;;;;5071201;28;20150;-74
2023/12/31 06:04:58;;;;;;;6.43;3.42;;;8.10;99.90;;;;;;5065156;28;20050;-74
2023/12/31 06:07:23;;;;;;;5.13;3.13;;;8.10;99.90;;;;;;5066549;28;20044;-74
2023/12/31 06:09:49;;;;;;;4.28;3.22;;;8.10;99.90;;;;;;5076611;28;20044;-74
2023/12/31 06:12:15;;;;;;;6.75;3.15;;;8.10;99.90;;;;;;5061884;28;20051;-74
2023/12/31 06:14:41;;;;;;;5.03;3.25;;;8.10;99.90;;;;;;5063956;28;20453;-74
2023/12/31 06:17:06;;;;;;;4.78;3.13;;;8.20;99.90;;;;;;5075293;28;20058;-74
2023/12/31 06:19:33;;;;;;;3.88;2.95;;;8.20;99.90;;;;;;5062908;28;20040;-74
2023/12/31 06:21:59;;;;;;;6.45;3.50;;;8.20;99.90;;;;;;5072251;28;20047;-74
2023/12/31 06:24:28;;;;;;;6.68;3.20;;;8.20;99.90;;;;;;5056752;28;20140;-74
2023/12/31 06:26:54;;;;;;;6.05;3.25;;;8.10;99.90;;;;;;5073517;28;20036;-74
2023/12/31 06:29:19;;;;;;;5.68;3.28;;;8.20;99.90;;;;;;5054655;28;20122;-74
2023/12/31 06:31:45;;;;;;;4.95;3.55;;;8.20;99.90;;;;;;5075976;28;20667;-74
2023/12/31 06:34:11;;;;;;;5.13;3.20;;;8.20;99.90;;;;;;5084624;28;20048;-74
2023/12/31 06:36:37;;;;;;;6.10;3.33;;;8.20;99.90;;;;;;5056983;28;20110;-74
2023/12/31 06:39:03;;;;;;;5.50;3.30;;;8.20;99.90;;;;;;5068938;28;20127;-75
2023/12/31 06:41:29;;;;;;;5.82;3.25;;;8.20;99.90;;;;;;5071609;28;20100;-75
2023/12/31 06:43:58;;;;;;;4.47;2.80;;;8.30;99.90;;;;;;5060084;28;20090;-75
2023/12/31 06:46:23;;;;;;;4.70;3.25;;;8.20;99.90;;;;;;5077222;28;20054;-75
2023/12/31 06:48:49;;;;;;;5.40;3.63;;;8.20;99.90;;;;;;5070652;28;20413;-75
2023/12/31 06:51:15;;;;;;;5.20;3.25;;;8.30;99.90;;;;;;5072833;28;20047;-75
2023/12/31 06:53:40;;;;;;;6.03;3.63;;;8.20;99.90;;;;;;5060017;28;20370;-75
2023/12/31 06:56:07;;;;;;;4.55;3.03;;;8.20;99.90;;;;;;5078611;28;20497;-75
2023/12/31 06:58:37;;;;;;;4.70;3.22;;;8.20;99.90;;;;;;5073969;28;20093;-75
2023/12/31 07:01:04;;;;;;;4.68;2.97;;;8.20;99.90;;;;;;5067380;28;20452;-75
2023/12/31 07:03:31;;;;;;;4.53;3.40;;;8.20;99.90;;;;;;5054208;28;20077;-75
2023/12/31 07:05:57;;;;;;;4.55;2.90;;;8.20;99.90;;;;;;5068359;28;20048;-75
2023/12/31 07:08:23;;;;;;;6.45;3.38;;;8.20;99.90;;;;;;5070076;28;20055;-75
2023/12/31 07:10:50;;;;;;;5.13;3.03;;;8.20;99.90;;;;;;5081678;28;20069;-75
2023/12/31 07:13:16;;;;;;;4.07;3.17;;;8.20;99.90;;;;;;5081905;28;20073;-75
2023/12/31 07:15:43;;;;;;;7.57;3.80;;;8.30;99.90;;;;;;5082583;27;20039;-75
2023/12/31 07:18:09;;;;;;;5.30;3.58;;;8.20;99.90;;;;;;5081008;27;20064;-75
2023/12/31 07:20:35;;;;;;;4.90;3.20;;;8.20;99.90;;;;;;5079771;28;20136;-75
2023/12/31 07:23:01;;;;;;;5.18;3.33;;;8.30;99.90;;;;;;5079952;28;20043;-75
2023/12/31 07:25:28;;;;;;;4.95;3.20;;;8.30;99.90;;;;;;5082065;28;20136;-75
2023/12/31 07:27:57;;;;;;;4.55;3.40;;;8.30;99.90;;;;;;5085134;28;20043;-75
2023/12/31 07:30:23;;;;;;;3.97;3.28;;;8.30;99.90;;;;;;5065798;28;20055;-75
2023/12/31 07:32:49;;;;;;;4.40;3.25;;;8.30;99.90;;;;;;5073401;28;20055;-75
2023/12/31 07:35:15;;;;;;;6.43;3.00;;;8.40;99.90;;;;;;5066726;28;20398;-75
2023/12/31 07:37:41;;;;;;;5.53;3.42;;;8.40;99.90;;;;;;5078499;28;20172;-75
2023/12/31 07:40:08;;;;;;;4.28;3.30;;;8.50;99.90;;;;;;5069835;28;20435;-75
2023/12/31 07:42:34;;;;;;;4.82;3.42;;;8.50;99.90;;;;;;5078182;28;20130;-75
2023/12/31 07:45:00;;;;;;;5.30;3.10;;;8.50;99.90;;;;;;5061391;28;20040;-75
2023/12/31 07:47:26;;;;;;;3.72;3.05;;;8.50;99.90;;;;;;5081222;28;20055;-75
2023/12/31 07:49:52;;;;;;;5.35;3.40;;;8.50;99.90;;;;;;5083857;28;20050;-75
2023/12/31 07:52:20;;;;;;;4.50;3.50;;;8.60;99.90;;;;;;5080005;28;20431;-75
2023/12/31 07:54:46;;;;;;;4.97;3.38;;;8.60;99.90;;;;;;5080977;28;20047;-75
2023/12/31 07:57:12;;;;;;;4.65;3.30;;;8.60;99.90;;;;;;5090170;28;20047;-74
2023/12/31 07:59:38;;;;;;;5.45;3.50;;;8.70;99.90;;;;;;5066969;28;20193;-75
2023/12/31 08:02:04;;;;;;;4.80;3.08;;;8.70;99.90;;;;;;5075700;28;20421;-74
2023/12/31 08:04:30;;;;;;;4.80;3.22;;;8.70;99.90;;;;;;5077843;28;20078;-74
2023/12/31 08:06:56;;;;;;;5.32;3.45;;;8.70;99.90;;;;;;5086298;28;20054;-74
2023/12/31 08:09:23;;;;;;;5.30;3.03;;;8.70;99.90;;;;;;5083924;27;20043;-74
2023/12/31 08:11:49;;;;;;;5.32;3.22;;;8.80;99.90;;;;;;5085540;28;20032;-75
2023/12/31 08:14:14;;;;;;;5.78;3.42;;;8.70;99.90;;;;;;5068391;27;20043;-74
2023/12/31 08:16:40;;;;;;;3.95;2.95;;;8.80;99.90;;;;;;5078525;28;20084;-74
2023/12/31 08:19:06;;;;;;;4.70;3.08;;;8.80;99.90;;;;;;5088610;27;20039;-74
2023/12/31 08:21:32;;;;;;;4.72;2.90;;;8.70;99.90;;;;;;5066693;27;20106;-75
2023/12/31 08:23:57;;;;;;;5.40;3.28;;;8.80;99.90;;;;;;5085016;28;20039;-75
2023/12/31 08:26:25;;;;;;;5.22;3.30;;;8.70;99.90;;;;;;5072380;27;20375;-75
2023/12/31 08:28:53;;;;;;;5.32;3.85;;;8.80;99.90;;;;;;5069634;28;20494;-74
2023/12/31 08:31:20;;;;;;;5.45;3.60;;;8.80;99.90;;;;;;5087522;27;20044;-74
2023/12/31 08:33:45;;;;;;;5.35;3.40;;;8.70;99.90;;;;;;5073405;27;20126;-74
2023/12/31 08:36:11;;;;;;;5.97;3.60;;;8.80;99.90;;;;;;5065961;28;20486;-74
2023/12/31 08:38:37;;;;;;;4.95;3.20;;;8.80;99.90;;;;;;5070523;28;20135;-75
2023/12/31 08:41:03;;;;;;;5.07;3.15;;;8.80;99.90;;;;;;5082782;28;20054;-74
2023/12/31 08:43:29;;;;;;;5.65;3.28;;;8.80;99.90;;;;;;5070422;27;20222;-74
2023/12/31 08:45:57;;;;;;;4.10;3.00;;;8.80;99.90;;;;;;5078570;27;20042;-75
2023/12/31 08:48:23;;;;;;;5.18;3.70;;;8.80;99.90;;;;;;5089976;27;20488;-75
2023/12/31 08:50:49;;;;;;;4.43;3.08;;;8.80;99.90;;;;;;5066011;28;20075;-74
2023/12/31 08:53:15;;;;;;;4.95;3.22;;;8.80;99.90;;;;;;5068665;28;20032;-74
2023/12/31 08:55:41;;;;;;;3.75;2.80;;;8.90;99.90;;;;;;5066384;28;20047;-75
2023/12/31 08:58:06;;;;;;;4.78;3.28;;;8.90;99.90;;;;;;5085338;28;20043;-74
2023/12/31 09:00:32;;;;;;;4.57;3.38;;;8.90;99.90;;;;;;5069955;28;20093;-74
2023/12/31 09:02:58;;;;;;;3.88;3.03;;;8.90;99.90;;;;;;5069434;28;20088;-74
2023/12/31 09:05:24;;;;;;;5.25;3.35;;;8.90;99.90;;;;;;5068031;28;20533;-74
2023/12/31 09:07:50;;;;;;;4.20;3.10;;;8.90;99.90;;;;;;5088819;28;20044;-74
2023/12/31 09:10:16;;;;;;;5.18;3.00;;;9.00;99.90;;;;;;5083245;27;20173;-74
2023/12/31 09:12:42;;;;;;;4.18;3.40;;;9.00;99.90;;;;;;5089614;28;20131;-74
2023/12/31 09:15:08;;;;;;;5.88;3.20;;;9.00;99.90;;;;;;5087359;27;20051;-75
2023/12/31 09:17:37;;;;;;;4.85;3.40;;;9.00;99.90;;;;;;5061572;28;20183;-75
2023/12/31 09:20:06;;;;;;;4.63;3.20;;;9.00;99.90;;;;;;5085147;28;20417;-74
2023/12/31 09:22:33;;;;;;;5.97;2.95;;;9.00;99.90;;;;;;5078643;27;20043;-74
2023/12/31 09:24:58;;;;;;;4.47;3.08;;;9.00;99.90;;;;;;5084237;28;20043;-73
2023/12/31 09:27:24;;;;;;;4.47;3.40;;;9.10;99.90;;;;;;5080231;28;20051;-74
2023/12/31 09:29:51;;;;;;;5.03;3.70;;;9.00;99.90;;;;;;5076153;28;20384;-74
2023/12/31 09:32:17;;;;;;;5.47;3.25;;;9.00;99.90;;;;;;5065034;28;20044;-74
2023/12/31 09:34:43;;;;;;;3.97;3.03;;;9.10;99.90;;;;;;5081368;28;20082;-74
2023/12/31 09:37:09;;;;;;;4.38;3.20;;;9.10;99.90;;;;;;5064863;28;20054;-74
2023/12/31 09:39:34;;;;;;;4.43;3.30;;;9.10;99.90;;;;;;5065662;28;20052;-74
2023/12/31 09:42:06;;;;;;;5.32;3.47;;;9.10;99.90;;;;;;5067548;28;20123;-75
2023/12/31 09:44:32;;;;;;;4.85;3.42;;;9.10;99.90;;;;;;5065301;28;20059;-74
2023/12/31 09:47:06;;;;;;;6.10;3.22;;;9.20;99.90;;;;;;5085064;28;20047;-74
2023/12/31 09:49:36;;;;;;;5.28;3.45;;;9.20;99.90;;;;;;5063008;28;20070;-75
2023/12/31 09:52:08;;;;;;;5.80;3.13;;;9.20;99.90;;;;;;5086147;28;20154;-75
2023/12/31 09:54:36;;;;;;;5.10;3.65;;;9.20;99.90;;;;;;5078248;27;20047;-74
2023/12/31 09:57:04;;;;;;;5.40;3.25;;;9.10;99.90;;;;;;5091233;27;20446;-75
2023/12/31 09:59:30;;;;;;;5.53;3.45;;;9.20;99.90;;;;;;5082523;28;20486;-75
2023/12/31 10:02:03;;;;;;;5.30;3.72;;;9.10;99.90;;;;;;5086154;27;20043;-74
2023/12/31 10:04:30;;;;;;;4.32;3.40;;;9.20;99.90;;;;;;5069238;28;20770;-74
2023/12/31 10:06:56;;;;;;;4.82;3.60;;;9.20;99.90;;;;;;5084011;28;20442;-75
2023/12/31 10:09:27;;;;;;;4.47;3.60;;;9.20;99.90;;;;;;5064070;27;20062;-75
2023/12/31 10:11:56;;;;;;;6.40;3.88;;;9.30;99.90;;;;;;5072895;27;20040;-75
2023/12/31 10:14:23;;;;;;;4.53;3.53;;;9.30;99.90;;;;;;5069437;28;20132;-74
2023/12/31 10:16:49;;;;;;;4.88;3.55;;;9.30;99.90;;;;;;5065733;28;20040;-75
2023/12/31 10:19:15;;;;;;;6.25;3.83;;;9.40;99.90;;;;;;5081743;28;20739;-75
2023/12/31 10:21:42;;;;;;;7.07;4.20;;;9.40;99.90;;;;;;5085285;27;20543;-74
2023/12/31 10:24:08;;;;;;;7.93;4.10;;;9.40;99.90;;;;;;5064139;27;20052;-75
2023/12/31 10:26:35;;;;;;;5.13;3.80;;;9.50;99.90;;;;;;5083894;28;20499;-74
2023/12/31 10:29:01;;;;;;;5.07;3.60;;;9.50;99.90;;;;;;5067604;28;20040;-75
2023/12/31 10:31:27;;;;;;;5.18;4.13;;;9.60;99.90;;;;;;5080651;28;20468;-75
2023/12/31 10:33:53;;;;;;;4.75;4.05;;;9.60;99.90;;;;;;5067169;28;20059;-75
2023/12/31 10:36:23;;;;;;;6.07;3.88;;;9.60;99.90;;;;;;5083403;27;20634;-75
2023/12/31 10:38:51;;;;;;;4.97;3.60;;;9.60;99.90;;;;;;5063102;28;20720;-74
2023/12/31 10:41:24;;;;;;;4.60;3.70;;;9.70;99.90;;;;;;5089792;27;20124;-75
2023/12/31 10:43:54;;;;;;;5.60;4.40;;;9.70;99.90;;;;;;5064024;28;20048;-75
2023/12/31 10:46:22;;;;;;;5.65;3.85;;;9.80;99.90;;;;;;5080548;27;20126;-75
2023/12/31 10:49:02;;;;;;;6.22;3.90;;;9.90;99.90;;;;;;5085837;28;20501;-75
2023/12/31 10:51:28;;;;;;;5.15;3.60;;;9.90;99.90;;;;;;5087852;27;20074;-74
2023/12/31 10:54:02;;;;;;;5.05;4.13;;;10.00;99.90;;;;;;5077169;28;20067;-74
2023/12/31 10:56:28;;;;;;;5.20;3.67;;;10.00;99.90;;;;;;5082293;28;20086;-74
2023/12/31 10:58:55;;;;;;;5.82;4.20;;;10.00;99.90;;;;;;5063402;28;20508;-75
2023/12/31 11:01:24;;;;;;;5.63;3.65;;;10.00;99.90;;;;;;5085965;28;20050;-75
2023/12/31 11:03:58;;;;;;;5.93;4.45;;;10.00;99.90;;;;;;5079954;28;20043;-75
2023/12/31 11:06:26;;;;;;;5.05;4.25;;;10.00;99.90;;;;;;5081889;28;20405;-74
2023/12/31 11:08:53;;;;;;;6.13;4.53;;;9.90;99.90;;;;;;5082618;27;20497;-75
2023/12/31 11:11:19;;;;;;;6.75;4.75;;;9.90;99.90;;;;;;5082178;28;20043;-76
2023/12/31 11:13:51;;;;;;;6.32;4.40;;;9.90;99.90;;;;;;5076480;28;20211;-76
2023/12/31 11:16:38;;;;;;;6.35;4.63;;;9.90;99.90;;;;;;5085864;28;20067;-76
2023/12/31 11:19:25;;;;;;;6.50;4.10;;;9.80;99.90;;;;;;5079175;28;20036;-75
2023/12/31 11:22:34;;;;;;;6.50;4.22;;;9.80;99.90;;;;;;5072165;28;20063;-76
2023/12/31 11:25:02;;;;;;;5.82;3.88;;;9.80;99.90;;;;;;5025846;28;20055;-76
2023/12/31 11:27:31;;;;;;;4.75;3.50;;;9.70;99.90;;;;;;5059279;28;21289;-76
2023/12/31 11:29:58;;;;;;;5.40;4.10;;;9.70;99.90;;;;;;5073269;28;20043;-76
2023/12/31 11:32:27;;;;;;;5.57;4.70;;;9.70;99.90;;;;;;5064667;28;20738;-75
2023/12/31 11:34:58;;;;;;;4.85;3.97;;;9.70;99.90;;;;;;5065765;28;20044;-76
2023/12/31 11:37:23;;;;;;;6.13;4.05;;;9.60;99.90;;;;;;5067968;28;20516;-76
2023/12/31 11:39:54;;;;;;;5.88;4.38;;;9.60;99.90;;;;;;5057394;28;20043;-76
2023/12/31 11:42:21;;;;;;;;;;;9.60;99.90;;;;;;5053473;28;20593;-76
2023/12/31 11:44:47;;;;;;;5.70;3.90;;;9.50;99.90;;;;;;5071453;28;19974;-75
2023/12/31 11:47:21;;;;;;;4.70;3.00;;;9.40;99.90;;;;;;5070033;28;20044;-76
2023/12/31 11:50:13;;;;;;;5.50;3.50;;;9.30;99.90;;;;;;5071235;28;20490;-75
2023/12/31 11:52:42;;;;;;;2.45;1.63;;;9.30;99.90;;;;;;5066094;28;20093;-75
2023/12/31 11:55:17;;;;;;;3.20;1.50;;;9.10;99.90;;;;;;5078099;28;20063;-76
2023/12/31 11:57:51;;;;;;;2.70;1.30;;;9.00;99.90;;;;;;5070019;28;20138;-76
2023/12/31 12:00:18;;;;;;;3.17;1.48;;;8.90;99.90;;;;;;5076214;28;20040;-77
2023/12/31 12:02:47;;;;;;;3.40;1.60;;;8.80;99.90;;;;;;5082044;28;20496;-76
2023/12/31 12:05:12;;;;;;;4.65;1.77;;;8.70;99.90;;;;;;5067252;28;20048;-76
2023/12/31 12:07:38;;;;;;;2.70;1.35;;;8.60;99.90;;;;;;5077436;28;20051;-76
2023/12/31 12:10:05;;;;;;;2.53;1.05;;;8.50;99.90;;;;;;5054923;28;20033;-75
2023/12/31 12:12:30;;;;;;;3.95;1.05;;;8.40;99.90;;;;;;5071726;28;20056;-75
2023/12/31 12:14:56;;;;;;;2.72;0.90;;;8.30;99.90;;;;;;5064480;28;20050;-76
2023/12/31 12:17:28;;;;;;;2.50;0.98;;;8.30;99.90;;;;;;5077886;28;20043;-76
2023/12/31 12:19:54;;;;;;;3.78;1.10;;;8.30;99.90;;;;;;5060520;28;20053;-75
2023/12/31 12:22:20;;;;;;;2.92;1.40;;;8.30;99.90;;;;;;5057320;28;20555;-76
2023/12/31 12:24:46;;;;;;;2.53;1.40;;;8.30;99.90;;;;;;5063180;28;20123;-76
2023/12/31 12:27:12;;;;;;;3.92;1.85;;;8.40;99.90;;;;;;5056677;28;20194;-76
2023/12/31 12:29:38;;;;;;;3.88;2.50;;;8.50;99.90;;;;;;5061305;28;20055;-76
2023/12/31 12:32:06;;;;;;;2.60;1.90;;;8.60;99.90;;;;;;5072717;28;20040;-77
2023/12/31 12:34:32;;;;;;;5.85;2.80;;;8.70;99.90;;;;;;5058779;28;20044;-77
2023/12/31 12:36:59;;;;;;;3.72;2.00;;;8.70;99.90;;;;;;5065254;28;20563;-76
2023/12/31 12:39:25;;;;;;;3.00;1.60;;;8.70;99.90;;;;;;5068845;28;20097;-77
2023/12/31 12:41:53;;;;;;;3.63;2.28;;;8.80;99.90;;;;;;5058990;28;20084;-76
2023/12/31 12:44:23;;;;;;;3.97;2.03;;;8.80;99.90;;;;;;5068372;28;20082;-76
2023/12/31 12:46:51;;;;;;;3.42;1.73;;;8.80;99.90;;;;;;5072773;28;20129;-76
2023/12/31 12:49:18;;;;;;;3.63;1.85;;;8.80;99.90;;;;;;5078557;28;20090;-77
2023/12/31 12:51:44;;;;;;;3.55;2.10;;;8.80;99.90;;;;;;5062476;28;20052;-76
2023/12/31 12:54:10;;;;;;;3.42;1.63;;;8.80;99.90;;;;;;5070664;28;20050;-76
2023/12/31 12:56:36;;;;;;;3.60;1.60;;;8.70;99.90;;;;;;5058917;28;20082;-77